Chippewa, MI

1:45 PM EDT on April 21, 2018 (GMT -0400)
Chippewa County International

Weather History for KCIU - May, 2014

Change the Weather History Date:

Monday, May 12, 2014

  Actual Average Record
Temperature  
Mean Temperature 50 °F -  
Max Temperature 53 °F 63 °F 80 °F (1992)
Min Temperature 48 °F 39 °F 20 °F (1984)
Degree Days  
Heating Degree Days 14    
Moisture  
Dew Point 40 °F    
Average Humidity 67    
Maximum Humidity 76    
Minimum Humidity 58    
Precipitation  
Precipitation 0.00 in - - ()
Sea Level Pressure  
Sea Level Pressure 30.01 in    
Wind  
Wind Speed 10 mph (East)    
Max Wind Speed 23 mph    
Max Gust Speed 30 mph    
Visibility 10 miles    
Events      
Averages and records for this station are not official NWS values.
T = Trace of Precipitation, MM = Missing Value Source: NWS Daily Summary

Daily Weather History Graph

Daily Weather History Graph

Search for Another Location

Airport or City:

Astronomy

May. 12, 2014 Rise Set
Actual Time 6:08 AM EDT 9:00 PM EDT
Civil Twilight 5:33 AM EDT 9:35 PM EDT
Nautical Twilight 4:49 AM EDT 10:20 PM EDT
Astronomical Twilight 3:56 AM EDT 11:13 PM EDT
Moon 6:50 PM EDT (5/12) 4:56 AM EDT (5/12)
Length of Visible Light 16h 01m
Length of Day
14h 51m
Waxing Gibbous, 95% of the Moon is Illuminated
May 12
Waxing Gibbous
May 14
Full
May 21
Last Quarter
May 28
New
Jun 5
First Quarter

Hourly Weather History & Observations

Time (EDT) Temp. Dew Point Humidity Pressure Visibility Wind Dir Wind Speed Gust Speed Precip Events Conditions
12:15 AM 51.8 °F 41.0 °F 67% 30.01 in 10.0 mi Calm Calm - N/A   Clear
12:35 AM 51.8 °F 41.0 °F 67% 30.01 in 10.0 mi SE 4.6 mph - N/A   Partly Cloudy
12:55 AM 53.6 °F 39.2 °F 58% 30.01 in 10.0 mi SE 3.5 mph - N/A   Mostly Cloudy
1:15 AM 53.6 °F 39.2 °F 58% 30.02 in 10.0 mi ESE 3.5 mph - N/A   Partly Cloudy
1:35 AM 51.8 °F 41.0 °F 67% 30.03 in 10.0 mi Calm Calm - N/A   Partly Cloudy
1:55 AM 51.8 °F 39.2 °F 62% 30.03 in 10.0 mi NE 6.9 mph - N/A   Mostly Cloudy
2:15 AM 51.8 °F 41.0 °F 67% 30.02 in 10.0 mi Calm Calm - N/A   Mostly Cloudy
2:35 AM 50.0 °F 41.0 °F 71% 30.03 in 10.0 mi NE 6.9 mph - N/A   Scattered Clouds
2:55 AM 50.0 °F 41.0 °F 71% 30.02 in 10.0 mi NE 10.4 mph - N/A   Scattered Clouds
3:15 AM 51.8 °F 42.8 °F 71% 30.00 in 10.0 mi NE 10.4 mph - N/A   Mostly Cloudy
3:35 AM 51.8 °F 42.8 °F 71% 30.00 in 10.0 mi NE 10.4 mph - N/A   Scattered Clouds
3:55 AM 51.8 °F 42.8 °F 71% 30.01 in 10.0 mi ENE 10.4 mph - N/A   Clear
4:15 AM 51.8 °F 42.8 °F 71% 30.01 in 10.0 mi ENE 9.2 mph - N/A   Clear
4:35 AM 51.8 °F 42.8 °F 71% 30.01 in 10.0 mi NE 10.4 mph - N/A   Clear
4:55 AM 51.8 °F 42.8 °F 71% 30.01 in 10.0 mi ENE 9.2 mph - N/A   Clear
5:15 AM 51.8 °F 41.0 °F 67% 30.01 in 10.0 mi ENE 10.4 mph - N/A   Clear
5:35 AM 51.8 °F 39.2 °F 62% 30.00 in 10.0 mi ENE 10.4 mph - N/A   Clear
5:55 AM 50.0 °F 39.2 °F 66% 30.00 in 10.0 mi East 10.4 mph - N/A   Mostly Cloudy
6:15 AM 50.0 °F 39.2 °F 66% 29.99 in 10.0 mi ENE 11.5 mph - N/A   Partly Cloudy
6:35 AM 50.0 °F 39.2 °F 66% 30.01 in 10.0 mi East 13.8 mph 20.7 mph N/A   Partly Cloudy
6:55 AM 50.0 °F 39.2 °F 66% 30.02 in 10.0 mi East 16.1 mph - N/A   Mostly Cloudy
7:15 AM 50.0 °F 39.2 °F 66% 30.04 in 10.0 mi East 11.5 mph 18.4 mph N/A   Overcast
7:35 AM 50.0 °F 39.2 °F 66% 30.05 in 10.0 mi East 13.8 mph - N/A   Overcast
7:55 AM 51.8 °F 39.2 °F 62% 30.04 in 10.0 mi East 15.0 mph - N/A   Overcast
8:15 AM 50.0 °F 39.2 °F 66% 30.04 in 10.0 mi East 16.1 mph - N/A   Overcast
8:35 AM 50.0 °F 39.2 °F 66% 30.04 in 10.0 mi East 13.8 mph 20.7 mph N/A   Overcast
8:55 AM 50.0 °F 37.4 °F 62% 30.05 in 10.0 mi East 13.8 mph - N/A   Overcast
9:15 AM 50.0 °F 37.4 °F 62% 30.05 in 10.0 mi East 12.7 mph 17.3 mph N/A   Overcast
9:35 AM 50.0 °F 37.4 °F 62% 30.06 in 10.0 mi East 11.5 mph - N/A   Overcast
9:55 AM 50.0 °F 37.4 °F 62% 30.06 in 10.0 mi ESE 12.7 mph 16.1 mph N/A   Overcast
10:15 AM 48.2 °F 39.2 °F 71% 30.07 in 10.0 mi ESE 12.7 mph - N/A   Overcast
10:35 AM 48.2 °F 41.0 °F 76% 30.06 in 10.0 mi East 13.8 mph - N/A   Overcast
10:55 AM 48.2 °F 39.2 °F 71% 30.06 in 10.0 mi East 10.4 mph 18.4 mph N/A   Mostly Cloudy
11:15 AM 50.0 °F 41.0 °F 71% 30.05 in 10.0 mi East 12.7 mph 16.1 mph N/A   Partly Cloudy
11:35 AM 50.0 °F 39.2 °F 66% 30.03 in 10.0 mi East 16.1 mph 21.9 mph N/A   Partly Cloudy
11:55 AM 50.0 °F 39.2 °F 66% 30.00 in 10.0 mi East 17.3 mph 24.2 mph N/A   Mostly Cloudy
12:15 PM 50.0 °F 39.2 °F 66% 30.00 in 10.0 mi East 13.8 mph 25.3 mph N/A   Overcast
12:35 PM 50.0 °F 41.0 °F 71% 30.02 in 10.0 mi ESE 12.7 mph - N/A   Overcast
12:55 PM 50.0 °F 39.2 °F 66% 30.01 in 10.0 mi East 12.7 mph - N/A   Mostly Cloudy
1:15 PM 51.8 °F 39.2 °F 62% 30.02 in 10.0 mi East 10.4 mph 20.7 mph N/A   Overcast
1:35 PM 50.0 °F 42.8 °F 76% 30.02 in 10.0 mi ESE 11.5 mph - N/A   Overcast
1:55 PM 50.0 °F 42.8 °F 76% 30.02 in 10.0 mi East 13.8 mph - N/A   Overcast
2:15 PM 50.0 °F 41.0 °F 71% 30.02 in 10.0 mi ESE 16.1 mph 21.9 mph N/A   Overcast
2:35 PM 51.8 °F 39.2 °F 62% 30.02 in 10.0 mi East 15.0 mph 19.6 mph N/A   Overcast
2:55 PM 51.8 °F 39.2 °F 62% 30.02 in 10.0 mi East 13.8 mph 23.0 mph N/A   Overcast
3:35 PM 51.8 °F 39.2 °F 62% 30.02 in 10.0 mi ESE 16.1 mph 21.9 mph N/A   Overcast
3:55 PM 51.8 °F 41.0 °F 67% 30.01 in 10.0 mi East 17.3 mph 23.0 mph N/A   Overcast
4:15 PM 51.8 °F 41.0 °F 67% 30.01 in 10.0 mi East 12.7 mph - N/A   Overcast
4:35 PM 51.8 °F 41.0 °F 67% 30.00 in 10.0 mi East 15.0 mph 18.4 mph N/A   Overcast
4:55 PM 51.8 °F 39.2 °F 62% 29.97 in 10.0 mi East 17.3 mph 25.3 mph N/A   Overcast
5:15 PM 51.8 °F 39.2 °F 62% 29.96 in 10.0 mi East 19.6 mph 26.5 mph N/A   Overcast
5:35 PM 51.8 °F 39.2 °F 62% 29.95 in 10.0 mi East 23.0 mph 29.9 mph N/A   Overcast
5:55 PM 51.8 °F 41.0 °F 67% 29.97 in 10.0 mi East 18.4 mph 26.5 mph N/A   Overcast
6:15 PM 51.8 °F 41.0 °F 67% 29.96 in 10.0 mi East 18.4 mph 21.9 mph N/A   Overcast
6:35 PM 51.8 °F 41.0 °F 67% 29.95 in 10.0 mi East 15.0 mph 24.2 mph N/A   Overcast
6:55 PM 51.8 °F 41.0 °F 67% 29.95 in 10.0 mi East 16.1 mph 24.2 mph N/A   Overcast
7:15 PM 51.8 °F 41.0 °F 67% 29.95 in 10.0 mi East 15.0 mph 28.8 mph N/A   Overcast
7:35 PM 51.8 °F 41.0 °F 67% 29.97 in 10.0 mi East 13.8 mph - N/A   Overcast
7:55 PM 51.8 °F 41.0 °F 67% 29.97 in 10.0 mi ESE 13.8 mph - N/A   Overcast
8:15 PM 51.8 °F 41.0 °F 67% 29.96 in 10.0 mi ESE 15.0 mph 19.6 mph N/A   Overcast
8:35 PM 51.8 °F 39.2 °F 62% 29.98 in 10.0 mi East 13.8 mph 18.4 mph N/A   Overcast
8:55 PM 51.8 °F 39.2 °F 62% 29.98 in 10.0 mi East 15.0 mph 18.4 mph N/A   Overcast
9:15 PM 51.8 °F 39.2 °F 62% 29.98 in 10.0 mi East 13.8 mph - N/A   Overcast
9:35 PM 50.0 °F 39.2 °F 66% 29.98 in 10.0 mi East 11.5 mph - N/A   Overcast
9:55 PM 50.0 °F 39.2 °F 66% 29.99 in 10.0 mi East 11.5 mph 17.3 mph N/A   Overcast
10:15 PM 50.0 °F 41.0 °F 71% 29.99 in 10.0 mi East 10.4 mph - N/A   Overcast
10:35 PM 50.0 °F 41.0 °F 71% 29.99 in 10.0 mi East 11.5 mph 18.4 mph N/A   Overcast
10:55 PM 50.0 °F 41.0 °F 71% 29.98 in 10.0 mi ESE 17.3 mph - N/A   Overcast
11:15 PM 50.0 °F 41.0 °F 71% 29.96 in 10.0 mi East 15.0 mph 25.3 mph N/A   Overcast
11:35 PM 50.0 °F 42.8 °F 76% 29.95 in 10.0 mi ESE 20.7 mph 25.3 mph N/A   Overcast
11:55 PM 50.0 °F 42.8 °F 76% 29.94 in 10.0 mi East 21.9 mph 27.6 mph N/A   Overcast